MSC Divina — 3FFA5 — position and weather

sailwx.info

Track history (hours):
 
Tides and Currents Weather Stations Pressure Air Temp Water Temp Dewpoint Dewpoint Depression Visibility Wind Speed Wind Dir Waves Ship Positions

MSC Divina

Last reported at 2015-Jul-28 19:05 UTC. Time now 2015-Jul-28 21:45 UTC.
Position N 39°33' E 002°38'.

Length 333 m; draft 8.7 m.

Type: Passenger vessel. MMSI: 373178000.

Date/timePositionNaut miles runAvg speedWind from/ knotsBaromVisibWave heightAir tempDewpointWater temp
2015-Jul-28 19:05N 39°33' E 002°38'56 4.4
2015-Jul-28 06:33N 40°27' E 002°57'13818.8
2015-Jul-27 23:14N 42°18' E 004°45'1216.8
2015-Jul-27 22:31N 42°23' E 005°00'1616.6
2015-Jul-27 21:33N 42°30' E 005°20'1716.9
2015-Jul-27 20:34N 42°38' E 005°40'1717.0
2015-Jul-27 19:33N 42°45' E 006°01'1717.0
2015-Jul-27 18:33N 42°53' E 006°22'1616.4
2015-Jul-27 17:33N 43°03' E 006°39'1615.7
2015-Jul-27 16:33N 43°16' E 006°52'1716.6
2015-Jul-27 15:33N 43°31' E 007°00'1 0.4
2015-Jul-27 12:33N 43°32' E 007°01'0 0.0
2015-Jul-27 11:33N 43°32' E 007°01'0 0.0
2015-Jul-27 10:33N 43°32' E 007°01'0 0.0
2015-Jul-27 09:33N 43°32' E 007°01'0 0.0
2015-Jul-27 08:33N 43°32' E 007°01'0 0.0
2015-Jul-27 07:32N 43°32' E 007°01'0 0.0
2015-Jul-27 06:33N 43°32' E 007°01'0 0.4
2015-Jul-27 05:33N 43°32' E 007°01'1413.7
2015-Jul-27 04:33N 43°30' E 007°19'  
2015-Jul-24 20:30N 40°35' E 013°17'1616.7
2015-Jul-24 19:33N 40°35' E 013°38'1717.2
2015-Jul-24 18:34N 40°37' E 014°00'1716.9
2015-Jul-24 17:33N 40°49' E 014°16'2 0.1
2015-Jul-24 05:14N 40°50' E 014°16'6 8.5
2015-Jul-24 04:33N 40°45' E 014°13'1110.6
2015-Jul-24 03:33N 40°38' E 014°02'9 9.2
2015-Jul-24 02:33N 40°36' E 013°50'9 9.4
2015-Jul-24 01:33N 40°35' E 013°38'10 9.6
2015-Jul-24 00:29N 40°35' E 013°24'2411.2
2015-Jul-23 22:23N 40°40' E 012°54'3217.2
2015-Jul-23 20:31N 40°49' E 012°14'4217.2
2015-Jul-23 18:05N 41°00' E 011°20'1417.5
2015-Jul-23 17:19N 41°04' E 011°03'3517.9
2015-Jul-23 15:21N 41°13' E 010°18'1518.3
2015-Jul-23 14:33N 41°17' E 009°59'27217.6
2015-Jul-22 23:06N 41°49' E 003°59'4517.3
2015-Jul-22 20:32N 41°41' E 003°00'1717.7
2015-Jul-22 19:33N 41°31' E 002°41'1917.8
2015-Jul-22 18:29N 41°20' E 002°21'8 8.5
2015-Jul-22 17:33N 41°20' E 002°10'1 1.1
2015-Jul-22 16:27N 41°22' E 002°11'0 0.0
2015-Jul-22 15:30N 41°22' E 002°11'0 0.0
2015-Jul-22 13:24N 41°22' E 002°11'0 0.0
2015-Jul-22 12:33N 41°22' E 002°11'0 0.0
2015-Jul-22 11:21N 41°22' E 002°11'0 0.0
2015-Jul-22 10:27N 41°22' E 002°11'0 0.0
2015-Jul-22 09:33N 41°22' E 002°11'0 0.0
2015-Jul-22 08:23N 41°22' E 002°11'0 0.1
2015-Jul-22 07:12N 41°21' E 002°11'2 3.5
2015-Jul-22 06:32N 41°19' E 002°10'1515.1
2015-Jul-22 05:33N 41°04' E 002°13'1615.9
2015-Jul-22 04:33N 40°49' E 002°12'1616.0
2015-Jul-22 03:33N 40°33' E 002°13'1615.9
2015-Jul-22 02:33N 40°17' E 002°14'1717.0
2015-Jul-22 01:33N 39°60' E 002°15'1817.6
2015-Jul-22 00:33N 39°42' E 002°15'1616.4
2015-Jul-21 23:33N 39°28' E 002°24'1212.3
2015-Jul-21 22:33N 39°33' E 002°39'0 0.3
2015-Jul-21 21:33N 39°33' E 002°38'0 0.0
2015-Jul-21 20:33N 39°33' E 002°38'0 0.0
2015-Jul-21 19:33N 39°33' E 002°38'0 0.0
2015-Jul-21 18:30N 39°33' E 002°38'0 0.0
2015-Jul-21 17:33N 39°33' E 002°38'0 0.0
2015-Jul-21 16:33N 39°33' E 002°38'0 0.0
2015-Jul-21 15:33N 39°33' E 002°38'0 0.0
2015-Jul-21 14:33N 39°33' E 002°38'0 0.0
2015-Jul-21 13:32N 39°33' E 002°38'0 0.0
2015-Jul-21 12:32N 39°33' E 002°38'1 1.2
2015-Jul-21 11:34N 39°32' E 002°39'1313.3
2015-Jul-21 10:33N 39°29' E 002°22'1514.1
2015-Jul-21 09:31N 39°44' E 002°25'1717.5
2015-Jul-21 08:33N 39°56' E 002°40'1717.4
2015-Jul-21 07:33N 40°08' E 002°56'1817.6
2015-Jul-21 06:33N 40°21' E 003°12'1817.7
2015-Jul-21 05:33N 40°34' E 003°28'8917.8
2015-Jul-21 00:33N 41°38' E 004°50'1717.5
2015-Jul-20 23:33N 41°50' E 005°06'1717.1
2015-Jul-20 22:33N 42°03' E 005°22'1717.2
2015-Jul-20 21:33N 42°15' E 005°39'1717.1
2015-Jul-20 20:33N 42°27' E 005°55'2317.2
2015-Jul-20 19:14N 42°44' E 006°16'1217.6
2015-Jul-20 18:34N 42°52' E 006°27'1817.9
2015-Jul-20 17:33N 43°05' E 006°44'1818.0
2015-Jul-20 16:33N 43°21' E 006°55'1211.3
2015-Jul-20 15:31N 43°32' E 007°01'0 0.0
2015-Jul-20 14:25N 43°32' E 007°01'0 0.0
2015-Jul-20 10:09N 43°32' E 007°01'0 0.0
2015-Jul-20 08:27N 43°32' E 007°01'0 0.0
2015-Jul-20 07:33N 43°32' E 007°01'0 0.0
2015-Jul-20 06:33N 43°32' E 007°01'3 3.0
2015-Jul-20 05:33N 43°29' E 007°01'1717.4
2015-Jul-20 04:33N 43°30' E 007°25'1817.9
2015-Jul-20 03:33N 43°32' E 007°50'1818.4
2015-Jul-20 02:33N 43°36' E 008°14'2020.5
2015-Jul-20 01:34N 43°42' E 008°41'2020.2
2015-Jul-20 00:33N 43°49' E 009°08'2019.9
2015-Jul-19 23:33N 43°55' E 009°34'1515.2
2015-Jul-19 22:33N 44°05' E 009°51'2 1.7
2015-Jul-19 21:33N 44°06' E 009°50'0 0.0
2015-Jul-19 20:33N 44°06' E 009°50'0 0.0
2015-Jul-19 19:32N 44°06' E 009°50'0 0.0
2015-Jul-19 18:32N 44°06' E 009°50'0 0.0
2015-Jul-19 17:33N 44°06' E 009°50'0 0.0
2015-Jul-19 16:31N 44°06' E 009°50'0 0.0
2015-Jul-19 15:31N 44°06' E 009°50'0 0.0
2015-Jul-19 14:31N 44°06' E 009°50'0 0.0
2015-Jul-19 13:31N 44°06' E 009°50'0 0.0
2015-Jul-19 12:31N 44°06' E 009°50'0 0.0
2015-Jul-19 11:31N 44°06' E 009°50'0 0.0
2015-Jul-19 10:31N 44°06' E 009°50'0 0.0
2015-Jul-19 09:31N 44°06' E 009°50'0 0.0
2015-Jul-19 08:31N 44°06' E 009°50'0 0.0
2015-Jul-19 07:33N 44°06' E 009°50'0 0.0
2015-Jul-19 06:31N 44°06' E 009°50'0 0.0
2015-Jul-19 05:28N 44°06' E 009°50'4 3.8
2015-Jul-19 04:33N 44°03' E 009°52'5313.1
2015-Jul-19 00:33N 43°11' E 009°56'1717.4
2015-Jul-18 23:33N 42°54' E 010°01'2216.2
2015-Jul-18 22:13N 42°34' E 010°15'1217.6
2015-Jul-18 21:33N 42°28' E 010°28'1717.4
2015-Jul-18 20:33N 42°16' E 010°46'1717.2
2015-Jul-18 19:33N 42°07' E 011°05'  
Track history (hours):
 
Tides and Currents Weather Stations Pressure Air Temp Water Temp Dewpoint Dewpoint Depression Visibility Wind Speed Wind Dir Waves Ship Positions

MSC Divina

Last reported at 2015-Jul-28 19:05 UTC. Time now 2015-Jul-28 21:45 UTC.
Position N 39°33' E 002°38'.

Length 333 m; draft 8.7 m.

Type: Passenger vessel. MMSI: 373178000.

Date/timePositionNaut miles runAvg speedWind from/ knotsBaromVisibWave heightAir tempDewpointWater temp
2015-Jul-28 19:05N 39°33' E 002°38'56 4.4
2015-Jul-28 06:33N 40°27' E 002°57'13818.8
2015-Jul-27 23:14N 42°18' E 004°45'1216.8
2015-Jul-27 22:31N 42°23' E 005°00'1616.6
2015-Jul-27 21:33N 42°30' E 005°20'1716.9
2015-Jul-27 20:34N 42°38' E 005°40'1717.0
2015-Jul-27 19:33N 42°45' E 006°01'1717.0
2015-Jul-27 18:33N 42°53' E 006°22'1616.4
2015-Jul-27 17:33N 43°03' E 006°39'1615.7
2015-Jul-27 16:33N 43°16' E 006°52'1716.6
2015-Jul-27 15:33N 43°31' E 007°00'1 0.4
2015-Jul-27 12:33N 43°32' E 007°01'0 0.0
2015-Jul-27 11:33N 43°32' E 007°01'0 0.0
2015-Jul-27 10:33N 43°32' E 007°01'0 0.0
2015-Jul-27 09:33N 43°32' E 007°01'0 0.0
2015-Jul-27 08:33N 43°32' E 007°01'0 0.0
2015-Jul-27 07:32N 43°32' E 007°01'0 0.0
2015-Jul-27 06:33N 43°32' E 007°01'0 0.4
2015-Jul-27 05:33N 43°32' E 007°01'1413.7
2015-Jul-27 04:33N 43°30' E 007°19'  
2015-Jul-24 20:30N 40°35' E 013°17'1616.7
2015-Jul-24 19:33N 40°35' E 013°38'1717.2
2015-Jul-24 18:34N 40°37' E 014°00'1716.9
2015-Jul-24 17:33N 40°49' E 014°16'2 0.1
2015-Jul-24 05:14N 40°50' E 014°16'6 8.5
2015-Jul-24 04:33N 40°45' E 014°13'1110.6
2015-Jul-24 03:33N 40°38' E 014°02'9 9.2
2015-Jul-24 02:33N 40°36' E 013°50'9 9.4
2015-Jul-24 01:33N 40°35' E 013°38'10 9.6
2015-Jul-24 00:29N 40°35' E 013°24'2411.2
2015-Jul-23 22:23N 40°40' E 012°54'3217.2
2015-Jul-23 20:31N 40°49' E 012°14'4217.2
2015-Jul-23 18:05N 41°00' E 011°20'1417.5
2015-Jul-23 17:19N 41°04' E 011°03'3517.9
2015-Jul-23 15:21N 41°13' E 010°18'1518.3
2015-Jul-23 14:33N 41°17' E 009°59'27217.6
2015-Jul-22 23:06N 41°49' E 003°59'4517.3
2015-Jul-22 20:32N 41°41' E 003°00'1717.7
2015-Jul-22 19:33N 41°31' E 002°41'1917.8
2015-Jul-22 18:29N 41°20' E 002°21'8 8.5
2015-Jul-22 17:33N 41°20' E 002°10'1 1.1
2015-Jul-22 16:27N 41°22' E 002°11'0 0.0
2015-Jul-22 15:30N 41°22' E 002°11'0 0.0
2015-Jul-22 13:24N 41°22' E 002°11'0 0.0
2015-Jul-22 12:33N 41°22' E 002°11'0 0.0
2015-Jul-22 11:21N 41°22' E 002°11'0 0.0
2015-Jul-22 10:27N 41°22' E 002°11'0 0.0
2015-Jul-22 09:33N 41°22' E 002°11'0 0.0
2015-Jul-22 08:23N 41°22' E 002°11'0 0.1
2015-Jul-22 07:12N 41°21' E 002°11'2 3.5
2015-Jul-22 06:32N 41°19' E 002°10'1515.1
2015-Jul-22 05:33N 41°04' E 002°13'1615.9
2015-Jul-22 04:33N 40°49' E 002°12'1616.0
2015-Jul-22 03:33N 40°33' E 002°13'1615.9
2015-Jul-22 02:33N 40°17' E 002°14'1717.0
2015-Jul-22 01:33N 39°60' E 002°15'1817.6
2015-Jul-22 00:33N 39°42' E 002°15'1616.4
2015-Jul-21 23:33N 39°28' E 002°24'1212.3
2015-Jul-21 22:33N 39°33' E 002°39'0 0.3
2015-Jul-21 21:33N 39°33' E 002°38'0 0.0
2015-Jul-21 20:33N 39°33' E 002°38'0 0.0
2015-Jul-21 19:33N 39°33' E 002°38'0 0.0
2015-Jul-21 18:30N 39°33' E 002°38'0 0.0
2015-Jul-21 17:33N 39°33' E 002°38'0 0.0
2015-Jul-21 16:33N 39°33' E 002°38'0 0.0
2015-Jul-21 15:33N 39°33' E 002°38'0 0.0
2015-Jul-21 14:33N 39°33' E 002°38'0 0.0
2015-Jul-21 13:32N 39°33' E 002°38'0 0.0
2015-Jul-21 12:32N 39°33' E 002°38'1 1.2
2015-Jul-21 11:34N 39°32' E 002°39'1313.3
2015-Jul-21 10:33N 39°29' E 002°22'1514.1
2015-Jul-21 09:31N 39°44' E 002°25'1717.5
2015-Jul-21 08:33N 39°56' E 002°40'1717.4
2015-Jul-21 07:33N 40°08' E 002°56'1817.6
2015-Jul-21 06:33N 40°21' E 003°12'1817.7
2015-Jul-21 05:33N 40°34' E 003°28'8917.8
2015-Jul-21 00:33N 41°38' E 004°50'1717.5
2015-Jul-20 23:33N 41°50' E 005°06'1717.1
2015-Jul-20 22:33N 42°03' E 005°22'1717.2
2015-Jul-20 21:33N 42°15' E 005°39'1717.1
2015-Jul-20 20:33N 42°27' E 005°55'2317.2
2015-Jul-20 19:14N 42°44' E 006°16'1217.6
2015-Jul-20 18:34N 42°52' E 006°27'1817.9
2015-Jul-20 17:33N 43°05' E 006°44'1818.0
2015-Jul-20 16:33N 43°21' E 006°55'1211.3
2015-Jul-20 15:31N 43°32' E 007°01'0 0.0
2015-Jul-20 14:25N 43°32' E 007°01'0 0.0
2015-Jul-20 10:09N 43°32' E 007°01'0 0.0
2015-Jul-20 08:27N 43°32' E 007°01'0 0.0
2015-Jul-20 07:33N 43°32' E 007°01'0 0.0
2015-Jul-20 06:33N 43°32' E 007°01'3 3.0
2015-Jul-20 05:33N 43°29' E 007°01'1717.4
2015-Jul-20 04:33N 43°30' E 007°25'1817.9
2015-Jul-20 03:33N 43°32' E 007°50'1818.4
2015-Jul-20 02:33N 43°36' E 008°14'2020.5
2015-Jul-20 01:34N 43°42' E 008°41'2020.2
2015-Jul-20 00:33N 43°49' E 009°08'2019.9
2015-Jul-19 23:33N 43°55' E 009°34'1515.2
2015-Jul-19 22:33N 44°05' E 009°51'2 1.7
2015-Jul-19 21:33N 44°06' E 009°50'0 0.0
2015-Jul-19 20:33N 44°06' E 009°50'0 0.0
2015-Jul-19 19:32N 44°06' E 009°50'0 0.0
2015-Jul-19 18:32N 44°06' E 009°50'0 0.0
2015-Jul-19 17:33N 44°06' E 009°50'0 0.0
2015-Jul-19 16:31N 44°06' E 009°50'0 0.0
2015-Jul-19 15:31N 44°06' E 009°50'0 0.0
2015-Jul-19 14:31N 44°06' E 009°50'0 0.0
2015-Jul-19 13:31N 44°06' E 009°50'0 0.0
2015-Jul-19 12:31N 44°06' E 009°50'0 0.0
2015-Jul-19 11:31N 44°06' E 009°50'0 0.0
2015-Jul-19 10:31N 44°06' E 009°50'0 0.0
2015-Jul-19 09:31N 44°06' E 009°50'0 0.0
2015-Jul-19 08:31N 44°06' E 009°50'0 0.0
2015-Jul-19 07:33N 44°06' E 009°50'0 0.0
2015-Jul-19 06:31N 44°06' E 009°50'0 0.0
2015-Jul-19 05:28N 44°06' E 009°50'4 3.8
2015-Jul-19 04:33N 44°03' E 009°52'5313.1
2015-Jul-19 00:33N 43°11' E 009°56'1717.4
2015-Jul-18 23:33N 42°54' E 010°01'2216.2
2015-Jul-18 22:13N 42°34' E 010°15'1217.6
2015-Jul-18 21:33N 42°28' E 010°28'1717.4
2015-Jul-18 20:33N 42°16' E 010°46'1717.2
2015-Jul-18 19:33N 42°07' E 011°05'  

Dump ship's entire track history